aviador You're here:

KGEZ Decoded Metar

SHELBYVILLE in IN, USA
Report Time2018-02-22 14:10:00
UTC Time2018-02-22 14:55:46
Flight Rules ifr IFR
Wind020° at 10 kt
W.Decomp.*RWY 01: 9.7 kt HW 2.4 kt RCW
RWY 09: 4.1 kt HW 9.1 kt LCW
W.Rank020° ranks 33
Current wind is above 020° avg. (6.3)
Visibility6437 m
Phenomena:Light Rain
Mist
Clouds:Broken 007 Hf
Overcast 018 Hf
Expected CloudBase > 800 ft AGL from Temp-Dew spread
Ceiling700 ft
Temp04°C (ISA -9)
Dew Point02°C (87% RH)
AAT-1.3°C
QNH1031 hPa
Density Alt-843 ft
Elevation804 ft
Report Wrong Elevation
Raw Report
KGEZ 221410Z AUTO 02010KT 4SM -RA BR BKN007 OVC018 04/02 A3046 RMK
AO2 P0001 T00390017=

Extra information for KGEZ:More info

Metar Taf Metar & Taf Last 4 Metars F.Rules Stats Wind Profile Meteogram Temp Stats Airport Information Weather charts Add Link Nearby VenuesMetar ALERT Operation Metar Decoded Social comments

AIRNAV info for KGEZ